createdAt,value
2018-12-09T00:02:23.337Z,82.85
2018-12-09T00:04:54.576Z,82.86
2018-12-09T00:07:25.701Z,82.00
2018-12-09T00:09:59.341Z,82.95
2018-12-09T00:12:30.762Z,83.97
2018-12-09T00:15:04.185Z,84.72
2018-12-09T00:17:35.527Z,84.63
2018-12-09T00:20:06.741Z,84.41
2018-12-09T00:22:39.985Z,84.21
2018-12-09T00:25:11.403Z,84.03
2018-12-09T00:27:44.606Z,83.67
2018-12-09T00:30:17.603Z,83.63
2018-12-09T00:32:52.704Z,83.71
2018-12-09T00:35:30.586Z,84.04
2018-12-09T00:38:03.646Z,83.59
2018-12-09T00:40:40.726Z,84.08
2018-12-09T00:43:13.549Z,83.56
2018-12-09T00:45:44.903Z,83.54
2018-12-09T00:48:16.081Z,83.73
2018-12-09T00:50:47.213Z,84.24
2018-12-09T00:53:17.923Z,84.15
2018-12-09T00:55:51.266Z,84.18
2018-12-09T00:58:24.404Z,84.42
2018-12-09T01:00:57.347Z,84.49
2018-12-09T01:03:30.443Z,84.64
2018-12-09T01:06:02.983Z,83.99
2018-12-09T01:08:36.119Z,82.86
2018-12-09T01:11:06.684Z,82.81
2018-12-09T01:13:40.116Z,82.67
2018-12-09T01:16:11.593Z,81.64
2018-12-09T01:18:43.821Z,81.47
2018-12-09T01:24:09.716Z,82.19
2018-12-09T01:26:41.388Z,82.33
2018-12-09T01:29:14.462Z,82.20
2018-12-09T01:31:47.513Z,81.72
2018-12-09T01:34:19.012Z,81.55
2018-12-09T01:36:50.072Z,81.71
2018-12-09T01:39:23.384Z,81.54
2018-12-09T01:41:56.579Z,81.39
2018-12-09T01:44:28.029Z,81.49
2018-12-09T01:47:01.309Z,80.83
2018-12-09T01:49:35.159Z,80.06
2018-12-09T01:52:06.684Z,80.36
2018-12-09T01:54:40.143Z,79.03
2018-12-09T01:57:13.128Z,78.58
2018-12-09T01:59:43.848Z,77.46
2018-12-09T02:02:17.189Z,76.99
2018-12-09T02:04:50.075Z,76.71
2018-12-09T02:07:22.948Z,76.65
2018-12-09T02:09:58.054Z,76.83
2018-12-09T02:12:31.169Z,76.41
2018-12-09T02:15:04.344Z,77.27
2018-12-09T02:17:38.232Z,78.58
2018-12-09T02:20:09.717Z,79.71
2018-12-09T02:22:43.133Z,80.29
2018-12-09T02:25:14.377Z,79.71
2018-12-09T02:27:49.871Z,78.56
2018-12-09T02:30:20.982Z,78.76
2018-12-09T02:32:54.467Z,78.57
2018-12-09T02:35:26.145Z,78.30
2018-12-09T02:37:57.280Z,78.21
2018-12-09T02:40:28.827Z,78.64
2018-12-09T02:43:02.561Z,80.87
2018-12-09T02:45:36.153Z,82.89
2018-12-09T02:48:13.310Z,84.61
2018-12-09T02:50:46.567Z,84.63
2018-12-09T02:53:24.732Z,84.69
2018-12-09T02:56:07.685Z,84.09
2018-12-09T02:58:38.919Z,83.29
2018-12-09T03:01:14.666Z,80.80
2018-12-09T03:03:46.204Z,82.25
2018-12-09T03:06:21.065Z,80.02
2018-12-09T03:08:52.101Z,80.53
2018-12-09T03:11:25.705Z,80.82
2018-12-09T03:13:57.143Z,79.29
2018-12-09T03:16:34.522Z,79.47
2018-12-09T03:19:07.049Z,79.32
2018-12-09T03:21:40.307Z,79.48
2018-12-09T03:24:17.239Z,78.83
2018-12-09T03:26:48.706Z,78.25
2018-12-09T03:29:19.722Z,78.61
2018-12-09T03:31:53.250Z,78.35
2018-12-09T03:34:27.066Z,79.26
2018-12-09T03:36:58.403Z,78.01
2018-12-09T03:39:32.067Z,78.21
2018-12-09T03:42:09.550Z,77.63
2018-12-09T03:44:41.335Z,77.71
2018-12-09T03:47:14.681Z,78.59
2018-12-09T03:49:47.610Z,79.21
2018-12-09T03:52:20.852Z,79.26
2018-12-09T03:54:52.253Z,80.26
2018-12-09T03:57:23.243Z,80.08
2018-12-09T03:59:56.716Z,80.29
2018-12-09T04:02:28.239Z,80.48
2018-12-09T04:04:59.335Z,80.51
2018-12-09T04:07:30.421Z,81.27
2018-12-09T04:10:03.879Z,83.33
2018-12-09T04:12:37.685Z,84.78
2018-12-09T04:15:09.024Z,85.54
2018-12-09T04:17:40.258Z,86.65
2018-12-09T04:20:14.595Z,86.91
2018-12-09T04:22:48.484Z,86.87
2018-12-09T04:27:50.921Z,87.65
2018-12-09T04:30:21.942Z,87.86
2018-12-09T04:32:55.189Z,88.00
2018-12-09T04:35:26.715Z,88.18
2018-12-09T04:37:57.980Z,87.62
2018-12-09T04:40:33.229Z,86.75
2018-12-09T04:43:06.338Z,86.41
2018-12-09T04:45:41.359Z,85.85
2018-12-09T04:48:15.175Z,85.08
2018-12-09T04:50:46.418Z,84.17
2018-12-09T04:53:19.680Z,83.69
2018-12-09T04:55:52.968Z,83.28
2018-12-09T04:58:25.031Z,82.92
2018-12-09T05:00:56.898Z,82.55
2018-12-09T05:03:28.556Z,82.08
2018-12-09T05:06:02.134Z,81.66
2018-12-09T05:08:34.403Z,81.40
2018-12-09T05:11:07.553Z,81.40
2018-12-09T05:13:38.897Z,81.36
2018-12-09T05:16:14.588Z,81.63
2018-12-09T05:18:47.596Z,80.25
2018-12-09T05:21:18.948Z,80.35
2018-12-09T05:23:52.333Z,80.20
2018-12-09T05:26:26.454Z,80.42
2018-12-09T05:28:57.736Z,80.97
2018-12-09T05:31:35.291Z,81.11
2018-12-09T05:34:06.688Z,81.59
2018-12-09T05:36:40.304Z,81.26
2018-12-09T05:39:11.744Z,81.24
2018-12-09T05:41:42.983Z,80.64
2018-12-09T05:44:16.309Z,80.09
2018-12-09T05:46:47.946Z,80.48
2018-12-09T05:49:21.068Z,80.65
2018-12-09T05:51:54.325Z,80.29
2018-12-09T05:54:25.867Z,81.18
2018-12-09T05:57:01.451Z,80.48
2018-12-09T05:59:32.704Z,80.81
2018-12-09T06:02:11.691Z,80.96
2018-12-09T06:04:48.083Z,80.89
2018-12-09T06:07:21.022Z,80.68
2018-12-09T06:09:53.976Z,80.60
2018-12-09T06:12:27.777Z,80.75
2018-12-09T06:14:59.099Z,80.90
2018-12-09T06:17:32.505Z,80.35
2018-12-09T06:20:05.771Z,80.86
2018-12-09T06:22:39.527Z,81.15
2018-12-09T06:25:12.639Z,80.65
2018-12-09T06:27:48.692Z,81.17
2018-12-09T06:30:22.731Z,80.51
2018-12-09T06:32:56.229Z,80.83
2018-12-09T06:35:27.711Z,80.71
2018-12-09T06:38:05.557Z,80.96
2018-12-09T06:40:39.143Z,81.10
2018-12-09T06:43:19.227Z,81.02
2018-12-09T06:45:52.605Z,80.66
2018-12-09T06:48:27.679Z,80.70
2018-12-09T06:50:59.066Z,81.47
2018-12-09T06:53:32.536Z,81.47
2018-12-09T06:56:06.129Z,81.25
2018-12-09T06:58:37.729Z,81.87
2018-12-09T07:01:10.918Z,82.24
2018-12-09T07:03:44.957Z,82.44
2018-12-09T07:06:19.079Z,82.67
2018-12-09T07:08:54.813Z,82.22
2018-12-09T07:11:26.173Z,81.71
2018-12-09T07:13:59.563Z,81.44
2018-12-09T07:16:35.299Z,80.62
2018-12-09T07:19:13.300Z,79.30
2018-12-09T07:21:48.381Z,78.73
2018-12-09T07:24:20.100Z,78.91
2018-12-09T07:26:52.235Z,79.13
2018-12-09T07:29:25.315Z,79.09
2018-12-09T07:31:56.811Z,79.01
2018-12-09T07:34:30.414Z,79.36
2018-12-09T07:37:01.947Z,79.62
2018-12-09T07:39:35.088Z,79.27
2018-12-09T07:42:07.987Z,79.08
2018-12-09T07:44:40.904Z,78.73
2018-12-09T07:47:12.248Z,78.45
2018-12-09T07:49:45.617Z,78.75
2018-12-09T07:52:16.965Z,77.75
2018-12-09T07:54:50.326Z,78.25
2018-12-09T07:57:23.271Z,77.78
2018-12-09T07:59:55.043Z,77.77
2018-12-09T08:02:27.900Z,77.33
2018-12-09T08:05:01.412Z,77.06
2018-12-09T08:07:33.019Z,77.50
2018-12-09T08:10:04.478Z,76.66
2018-12-09T08:12:35.692Z,76.50
2018-12-09T08:15:08.952Z,76.77
2018-12-09T08:17:40.533Z,76.40
2018-12-09T08:20:13.651Z,76.42
2018-12-09T08:22:49.660Z,76.10
2018-12-09T08:25:21.431Z,75.98
2018-12-09T08:27:52.474Z,76.21
2018-12-09T08:30:25.782Z,76.39
2018-12-09T08:32:59.572Z,75.58
2018-12-09T08:35:31.104Z,75.46
2018-12-09T08:38:07.432Z,75.54
2018-12-09T08:40:39.175Z,74.90
2018-12-09T08:50:48.552Z,74.18
2018-12-09T08:53:19.107Z,74.27
2018-12-09T08:55:52.559Z,75.09
2018-12-09T08:58:25.582Z,74.93
2018-12-09T09:00:57.034Z,75.43
2018-12-09T09:03:30.121Z,75.08
2018-12-09T09:06:07.183Z,76.11
2018-12-09T09:08:38.650Z,74.87
2018-12-09T09:11:14.093Z,75.05
2018-12-09T09:13:45.832Z,74.90
2018-12-09T09:16:18.900Z,75.40
2018-12-09T09:18:51.900Z,74.55
2018-12-09T09:21:29.179Z,74.73
2018-12-09T09:24:03.437Z,74.36
2018-12-09T09:26:34.540Z,73.83
2018-12-09T09:29:07.920Z,74.16
2018-12-09T09:31:39.384Z,74.64
2018-12-09T09:37:09.086Z,74.94
2018-12-09T09:39:42.709Z,75.23
2018-12-09T09:42:15.807Z,75.41
2018-12-09T09:44:48.870Z,75.71
2018-12-09T09:47:20.465Z,75.82
2018-12-09T09:49:52.606Z,76.08
2018-12-09T09:52:24.335Z,75.75
2018-12-09T09:54:58.405Z,76.08
2018-12-09T09:57:35.508Z,76.11
2018-12-09T10:00:08.618Z,75.46
2018-12-09T10:02:46.837Z,75.32
2018-12-09T10:05:18.892Z,75.07
2018-12-09T10:07:51.916Z,74.80
2018-12-09T10:10:30.547Z,74.21
2018-12-09T10:13:04.900Z,73.40
2018-12-09T10:15:41.281Z,73.77
2018-12-09T10:18:14.001Z,72.80
2018-12-09T10:20:48.087Z,72.92
2018-12-09T10:23:21.545Z,72.53
2018-12-09T10:26:00.345Z,72.75
2018-12-09T10:28:37.478Z,72.74
2018-12-09T10:31:08.892Z,72.75
2018-12-09T10:33:40.117Z,71.65
2018-12-09T10:36:17.452Z,71.85
2018-12-09T10:38:53.300Z,71.92
2018-12-09T10:41:28.571Z,72.43
2018-12-09T10:44:04.123Z,71.64
2018-12-09T10:46:39.081Z,71.99
2018-12-09T10:49:16.220Z,71.79
2018-12-09T10:51:51.579Z,71.63
2018-12-09T10:54:23.719Z,71.85
2018-12-09T10:56:55.192Z,71.46
2018-12-09T10:59:30.433Z,71.57
2018-12-09T11:02:08.635Z,71.20
2018-12-09T11:04:41.923Z,71.41
2018-12-09T11:07:16.968Z,71.34
2018-12-09T11:09:51.344Z,71.44
2018-12-09T11:12:24.552Z,70.95
2018-12-09T11:15:00.125Z,70.69
2018-12-09T11:17:33.777Z,70.45
2018-12-09T11:20:08.543Z,71.47
2018-12-09T11:22:43.645Z,71.00
2018-12-09T11:28:38.289Z,71.18
2018-12-09T11:31:12.649Z,71.93
2018-12-09T11:33:52.774Z,71.51
2018-12-09T11:36:25.119Z,72.68
2018-12-09T11:39:06.422Z,72.53
2018-12-09T11:41:40.133Z,72.24
2018-12-09T11:44:16.530Z,72.87
2018-12-09T11:46:51.807Z,73.71
2018-12-09T11:49:23.416Z,74.25
2018-12-09T11:51:56.639Z,74.64
2018-12-09T11:54:30.871Z,74.22
2018-12-09T11:57:07.079Z,74.38
2018-12-09T11:59:38.342Z,73.81
2018-12-09T12:02:19.786Z,73.82
2018-12-09T12:04:45.599Z,73.36
2018-12-09T12:07:18.784Z,74.65
2018-12-09T12:09:50.213Z,76.26
2018-12-09T12:12:21.531Z,77.35
2018-12-09T12:15:01.964Z,78.79
2018-12-09T12:17:43.780Z,80.33
2018-12-09T12:20:19.424Z,80.63
2018-12-09T12:22:50.885Z,82.40
2018-12-09T12:25:28.259Z,83.94
2018-12-09T12:28:12.530Z,83.96
2018-12-09T12:30:45.939Z,82.99
2018-12-09T12:33:18.075Z,83.21
2018-12-09T12:35:59.014Z,83.68
2018-12-09T12:38:30.364Z,83.13
2018-12-09T12:41:05.178Z,82.78
2018-12-09T12:43:39.992Z,83.33
2018-12-09T12:46:27.428Z,82.88
2018-12-09T12:49:02.643Z,81.02
2018-12-09T12:51:39.216Z,79.25
2018-12-09T12:54:15.572Z,80.34
2018-12-09T12:56:51.656Z,80.75
2018-12-09T12:59:28.593Z,80.92
2018-12-09T13:02:05.270Z,81.38
2018-12-09T13:04:41.653Z,82.08
2018-12-09T13:07:17.966Z,83.28
2018-12-09T13:10:01.321Z,83.46
2018-12-09T13:12:34.581Z,84.22
2018-12-09T13:15:09.295Z,84.95
2018-12-09T13:17:43.208Z,85.76
2018-12-09T13:20:17.177Z,85.31
2018-12-09T13:22:53.007Z,86.34
2018-12-09T13:25:28.090Z,86.53
2018-12-09T13:28:14.395Z,87.47
2018-12-09T13:30:51.390Z,87.28
2018-12-09T13:33:32.650Z,87.69
2018-12-09T13:36:13.229Z,87.72
2018-12-09T13:38:51.994Z,87.96
2018-12-09T13:41:26.772Z,87.75
2018-12-09T13:44:12.166Z,88.02
2018-12-09T13:49:38.270Z,88.25
2018-12-09T13:52:10.213Z,88.69
2018-12-09T13:54:45.491Z,88.73
2018-12-09T13:57:30.236Z,88.58
2018-12-09T14:00:09.759Z,88.85
2018-12-09T14:02:50.378Z,89.16
2018-12-09T14:05:23.343Z,89.35
2018-12-09T14:07:55.272Z,89.74
2018-12-09T14:10:29.632Z,88.72
2018-12-09T14:13:04.843Z,88.63
2018-12-09T14:15:39.150Z,89.02
2018-12-09T14:18:13.386Z,89.00
2018-12-09T14:20:49.406Z,89.04
2018-12-09T14:23:26.919Z,88.92
2018-12-09T14:26:01.673Z,89.13
2018-12-09T14:28:41.821Z,88.77
2018-12-09T14:31:14.479Z,88.84
2018-12-09T14:33:47.096Z,88.56
2018-12-09T14:36:22.501Z,88.81
2018-12-09T14:38:57.281Z,89.21
2018-12-09T14:41:32.615Z,88.80
2018-12-09T14:44:07.041Z,89.59
2018-12-09T14:46:44.028Z,89.61
2018-12-09T14:49:17.987Z,89.52
2018-12-09T14:51:53.241Z,89.08
2018-12-09T14:54:45.682Z,89.21
2018-12-09T14:57:18.146Z,88.97
2018-12-09T14:59:52.517Z,89.31
2018-12-09T15:02:30.818Z,89.07
2018-12-09T15:05:05.643Z,89.37
2018-12-09T15:07:44.367Z,89.29
2018-12-09T15:10:24.382Z,89.10
2018-12-09T15:13:02.190Z,89.18
2018-12-09T15:15:43.011Z,89.06
2018-12-09T15:18:17.125Z,89.30
2018-12-09T15:20:53.347Z,88.95
2018-12-09T15:23:28.609Z,88.86
2018-12-09T15:26:04.447Z,88.83
2018-12-09T15:28:39.676Z,89.18
2018-12-09T15:31:15.579Z,88.48
2018-12-09T15:33:48.466Z,88.81
2018-12-09T15:36:24.606Z,88.47
2018-12-09T15:39:00.310Z,88.73
2018-12-09T15:41:36.507Z,88.42
2018-12-09T15:44:08.487Z,88.53
2018-12-09T15:46:40.846Z,88.33
2018-12-09T15:49:12.679Z,88.10
2018-12-09T15:51:46.550Z,87.89
2018-12-09T15:54:18.588Z,87.81
2018-12-09T15:56:50.866Z,87.40
2018-12-09T15:59:31.984Z,86.78
2018-12-09T16:02:03.778Z,87.26
2018-12-09T16:04:38.480Z,86.97
2018-12-09T16:07:10.868Z,86.86
2018-12-09T16:09:49.206Z,86.20
2018-12-09T16:12:23.454Z,85.84
2018-12-09T16:14:56.639Z,85.90
2018-12-09T16:17:29.616Z,85.80
2018-12-09T16:20:02.721Z,86.53
2018-12-09T16:22:34.300Z,85.62
2018-12-09T16:25:07.977Z,85.94
2018-12-09T16:27:46.775Z,85.94
2018-12-09T16:30:24.546Z,85.81
2018-12-09T16:32:56.677Z,85.80
2018-12-09T16:35:36.083Z,85.65
2018-12-09T16:38:11.009Z,85.54
2018-12-09T16:40:46.143Z,85.32
2018-12-09T16:43:22.062Z,85.50
2018-12-09T16:45:57.155Z,85.53
2018-12-09T16:48:31.693Z,85.73
2018-12-09T16:51:07.617Z,85.73
2018-12-09T16:53:40.105Z,85.58
2018-12-09T16:56:16.166Z,85.50
2018-12-09T16:58:52.456Z,86.00
2018-12-09T17:01:26.509Z,85.71
2018-12-09T17:04:00.702Z,85.88
2018-12-09T17:06:34.529Z,85.81
2018-12-09T17:09:11.068Z,85.73
2018-12-09T17:11:46.093Z,85.12
2018-12-09T17:14:23.888Z,85.51
2018-12-09T17:16:58.046Z,85.04
2018-12-09T17:19:34.177Z,84.46
2018-12-09T17:22:05.792Z,84.33
2018-12-09T17:24:38.949Z,84.28
2018-12-09T17:27:10.498Z,84.38
2018-12-09T17:29:43.997Z,84.35
2018-12-09T17:32:14.600Z,84.17
2018-12-09T17:34:45.708Z,84.21
2018-12-09T17:37:16.608Z,84.14
2018-12-09T17:39:52.134Z,84.12
2018-12-09T17:42:23.795Z,83.73
2018-12-09T17:44:56.911Z,83.96
2018-12-09T17:47:28.997Z,83.56
2018-12-09T17:50:00.289Z,83.93
2018-12-09T17:52:33.763Z,83.42
2018-12-09T17:55:11.981Z,83.40
2018-12-09T17:57:52.153Z,83.01
2018-12-09T18:00:25.678Z,83.02
2018-12-09T18:02:57.274Z,83.45
2018-12-09T18:05:31.165Z,83.38
2018-12-09T18:08:04.448Z,83.41
2018-12-09T18:10:38.299Z,83.45
2018-12-09T18:13:09.517Z,83.99
2018-12-09T18:15:40.923Z,84.49
2018-12-09T18:18:11.650Z,84.30
2018-12-09T18:20:45.390Z,84.40
2018-12-09T18:23:17.136Z,84.39
2018-12-09T18:25:50.387Z,84.01
2018-12-09T18:28:24.102Z,84.13
2018-12-09T18:30:55.567Z,84.64
2018-12-09T18:33:29.046Z,84.41
2018-12-09T18:36:01.457Z,84.83
2018-12-09T18:38:34.941Z,85.04
2018-12-09T18:41:06.983Z,85.27
2018-12-09T18:43:38.457Z,85.35
2018-12-09T18:46:11.903Z,85.04
2018-12-09T18:48:45.562Z,85.20
2018-12-09T18:51:16.933Z,85.86
2018-12-09T18:53:47.765Z,86.00
2018-12-09T19:11:31.192Z,86.48
2018-12-09T19:14:05.116Z,85.87
2018-12-09T19:16:36.527Z,85.60
2018-12-09T19:19:09.780Z,86.55
2018-12-09T19:21:42.884Z,86.46
2018-12-09T19:24:14.267Z,85.85
2018-12-09T19:26:45.389Z,85.61
2018-12-09T19:29:19.079Z,85.66
2018-12-09T19:31:51.405Z,86.26
2018-12-09T19:34:23.126Z,86.47
2018-12-09T19:36:54.198Z,86.51
2018-12-09T19:39:25.561Z,85.70
2018-12-09T19:41:57.047Z,85.54
2018-12-09T19:44:30.389Z,86.17
2018-12-09T19:47:02.757Z,85.85
2018-12-09T19:49:37.731Z,85.65
2018-12-09T19:52:11.826Z,85.95
2018-12-09T19:54:45.435Z,85.12
2018-12-09T19:57:19.424Z,84.73
2018-12-09T19:59:53.173Z,84.14
2018-12-09T20:02:27.035Z,83.73
2018-12-09T20:04:58.802Z,83.99
2018-12-09T20:07:32.890Z,84.19
2018-12-09T20:10:08.822Z,84.47
2018-12-09T20:12:41.423Z,85.17
2018-12-09T20:15:13.019Z,85.23
2018-12-09T20:17:50.822Z,85.81
2018-12-09T20:20:24.533Z,85.76
2018-12-09T20:22:58.281Z,85.68
2018-12-09T20:25:29.894Z,85.89
2018-12-09T20:28:03.571Z,85.95
2018-12-09T20:30:37.420Z,85.42
2018-12-09T20:33:12.548Z,85.09
2018-12-09T20:35:46.435Z,84.92
2018-12-09T20:38:20.356Z,84.74
2018-12-09T20:40:56.178Z,84.37
2018-12-09T20:43:28.154Z,84.62
2018-12-09T20:46:03.140Z,84.30
2018-12-09T20:48:37.569Z,83.91
2018-12-09T20:51:11.078Z,83.69
2018-12-09T20:53:42.993Z,83.24
2018-12-09T20:56:16.892Z,83.07
2018-12-09T20:58:54.301Z,83.61
2018-12-09T21:01:26.476Z,83.41
2018-12-09T21:04:00.285Z,83.71
2018-12-09T21:06:33.970Z,82.95
2018-12-09T21:09:08.910Z,82.73
2018-12-09T21:11:40.571Z,83.21
2018-12-09T21:14:14.811Z,83.06
2018-12-09T21:16:58.125Z,82.26
2018-12-09T21:19:30.276Z,82.14
2018-12-09T21:22:04.074Z,81.81
2018-12-09T21:24:39.195Z,82.39
2018-12-09T21:27:10.991Z,81.89
2018-12-09T21:29:43.603Z,82.93
2018-12-09T21:32:18.838Z,83.50
2018-12-09T21:34:50.837Z,83.69
2018-12-09T21:37:24.320Z,84.69
2018-12-09T21:39:55.659Z,83.80
2018-12-09T21:42:28.894Z,83.93
2018-12-09T21:45:00.097Z,83.99
2018-12-09T21:47:31.193Z,84.74
2018-12-09T21:50:04.444Z,84.82
2018-12-09T21:52:36.056Z,85.00
2018-12-09T21:55:10.196Z,85.08
2018-12-09T21:57:41.222Z,85.12
2018-12-09T22:00:14.532Z,84.97
2018-12-09T22:02:48.496Z,85.41
2018-12-09T22:05:20.152Z,85.12
2018-12-09T22:07:51.618Z,85.55
2018-12-09T22:10:24.709Z,85.41
2018-12-09T22:12:58.578Z,84.92
2018-12-09T22:15:31.585Z,84.58
2018-12-09T22:18:02.526Z,83.99
2018-12-09T22:20:33.767Z,83.02
2018-12-09T22:23:08.705Z,82.84
2018-12-09T22:25:40.108Z,83.04
2018-12-09T22:28:13.439Z,82.48
2018-12-09T22:30:46.692Z,82.31
2018-12-09T22:33:19.738Z,82.69
2018-12-09T22:35:52.936Z,82.56
2018-12-09T22:38:24.695Z,82.21
2018-12-09T22:40:58.840Z,81.78
2018-12-09T22:43:30.272Z,82.08
2018-12-09T22:46:03.488Z,81.32
2018-12-09T22:48:34.950Z,80.48
2018-12-09T22:51:08.167Z,80.46
2018-12-09T22:53:39.866Z,80.37
2018-12-09T22:56:13.042Z,80.01
2018-12-09T22:58:44.736Z,79.44
2018-12-09T23:01:21.421Z,80.80
2018-12-09T23:03:54.620Z,81.13
2018-12-09T23:06:27.732Z,81.83
2018-12-09T23:09:01.685Z,80.96
2018-12-09T23:11:33.848Z,82.15
2018-12-09T23:14:09.628Z,79.70
2018-12-09T23:16:40.817Z,80.41
2018-12-09T23:19:14.044Z,79.82
2018-12-09T23:21:45.601Z,79.79
2018-12-09T23:24:18.918Z,77.45
2018-12-09T23:26:50.557Z,75.59
2018-12-09T23:29:30.356Z,75.24
2018-12-09T23:32:04.019Z,76.82
2018-12-09T23:34:35.135Z,78.01
2018-12-09T23:37:08.385Z,80.02
2018-12-09T23:39:41.674Z,81.31
2018-12-09T23:42:12.896Z,82.40
2018-12-09T23:44:46.328Z,83.20
2018-12-09T23:47:19.309Z,83.89
2018-12-09T23:49:50.924Z,84.68
2018-12-09T23:52:24.068Z,84.99
2018-12-09T23:54:57.049Z,85.64
2018-12-09T23:57:30.270Z,85.98
